sensor_id;sensor_type;location;lat;lon;timestamp;P1;durP1;ratioP1;P2;durP2;ratioP2
2872;SDS011;1444;49.166;7.312;2023-12-07T00:00:18;44.07;;;17.20;;
2872;SDS011;1444;49.166;7.312;2023-12-07T00:02:45;26.07;;;15.37;;
2872;SDS011;1444;49.166;7.312;2023-12-07T00:05:13;31.57;;;17.93;;
2872;SDS011;1444;49.166;7.312;2023-12-07T00:07:40;29.30;;;16.07;;
2872;SDS011;1444;49.166;7.312;2023-12-07T00:10:07;38.57;;;18.47;;
2872;SDS011;1444;49.166;7.312;2023-12-07T00:12:35;35.07;;;18.10;;
2872;SDS011;1444;49.166;7.312;2023-12-07T00:15:01;47.17;;;18.93;;
2872;SDS011;1444;49.166;7.312;2023-12-07T00:17:29;31.00;;;17.83;;
2872;SDS011;1444;49.166;7.312;2023-12-07T00:19:56;31.40;;;18.30;;
2872;SDS011;1444;49.166;7.312;2023-12-07T00:22:24;46.70;;;20.03;;
2872;SDS011;1444;49.166;7.312;2023-12-07T00:24:53;32.60;;;17.93;;
2872;SDS011;1444;49.166;7.312;2023-12-07T00:27:20;46.20;;;19.00;;
2872;SDS011;1444;49.166;7.312;2023-12-07T00:29:47;37.03;;;19.73;;
2872;SDS011;1444;49.166;7.312;2023-12-07T00:32:14;41.83;;;18.03;;
2872;SDS011;1444;49.166;7.312;2023-12-07T00:34:42;41.37;;;20.87;;
2872;SDS011;1444;49.166;7.312;2023-12-07T00:37:09;38.70;;;19.30;;
2872;SDS011;1444;49.166;7.312;2023-12-07T00:39:37;34.27;;;18.13;;
2872;SDS011;1444;49.166;7.312;2023-12-07T00:42:06;29.90;;;18.17;;
2872;SDS011;1444;49.166;7.312;2023-12-07T00:44:33;41.80;;;20.47;;
2872;SDS011;1444;49.166;7.312;2023-12-07T00:47:00;37.40;;;18.83;;
2872;SDS011;1444;49.166;7.312;2023-12-07T00:49:26;55.40;;;19.73;;
2872;SDS011;1444;49.166;7.312;2023-12-07T00:51:54;37.30;;;18.40;;
2872;SDS011;1444;49.166;7.312;2023-12-07T00:54:20;39.23;;;19.73;;
2872;SDS011;1444;49.166;7.312;2023-12-07T00:56:49;43.43;;;17.80;;
2872;SDS011;1444;49.166;7.312;2023-12-07T00:59:16;31.90;;;17.33;;
2872;SDS011;1444;49.166;7.312;2023-12-07T01:01:43;41.37;;;19.30;;
2872;SDS011;1444;49.166;7.312;2023-12-07T01:04:10;42.77;;;20.93;;
2872;SDS011;1444;49.166;7.312;2023-12-07T01:06:37;40.40;;;20.50;;
2872;SDS011;1444;49.166;7.312;2023-12-07T01:09:03;44.33;;;21.60;;
2872;SDS011;1444;49.166;7.312;2023-12-07T01:11:30;40.87;;;21.50;;
2872;SDS011;1444;49.166;7.312;2023-12-07T01:13:58;362.27;;;149.27;;
2872;SDS011;1444;49.166;7.312;2023-12-07T01:16:25;73.60;;;31.87;;
2872;SDS011;1444;49.166;7.312;2023-12-07T01:18:52;43.07;;;21.83;;
2872;SDS011;1444;49.166;7.312;2023-12-07T01:21:19;38.53;;;19.27;;
2872;SDS011;1444;49.166;7.312;2023-12-07T01:23:46;47.03;;;21.63;;
2872;SDS011;1444;49.166;7.312;2023-12-07T01:26:12;51.43;;;20.10;;
2872;SDS011;1444;49.166;7.312;2023-12-07T01:28:39;44.47;;;22.20;;
2872;SDS011;1444;49.166;7.312;2023-12-07T01:31:08;47.57;;;22.70;;
2872;SDS011;1444;49.166;7.312;2023-12-07T01:33:34;44.70;;;23.37;;
2872;SDS011;1444;49.166;7.312;2023-12-07T01:36:01;39.83;;;20.27;;
2872;SDS011;1444;49.166;7.312;2023-12-07T01:38:28;38.70;;;18.77;;
2872;SDS011;1444;49.166;7.312;2023-12-07T01:40:55;39.03;;;18.47;;
2872;SDS011;1444;49.166;7.312;2023-12-07T01:43:22;41.37;;;20.57;;
2872;SDS011;1444;49.166;7.312;2023-12-07T01:45:49;50.63;;;22.67;;
2872;SDS011;1444;49.166;7.312;2023-12-07T01:48:20;46.50;;;18.30;;
2872;SDS011;1444;49.166;7.312;2023-12-07T01:50:49;46.43;;;20.40;;
2872;SDS011;1444;49.166;7.312;2023-12-07T01:53:16;45.23;;;20.03;;
2872;SDS011;1444;49.166;7.312;2023-12-07T01:55:44;34.70;;;18.83;;
2872;SDS011;1444;49.166;7.312;2023-12-07T01:58:12;40.27;;;16.70;;
2872;SDS011;1444;49.166;7.312;2023-12-07T02:00:40;37.50;;;22.23;;
2872;SDS011;1444;49.166;7.312;2023-12-07T02:03:07;37.93;;;18.17;;
2872;SDS011;1444;49.166;7.312;2023-12-07T02:05:35;51.30;;;17.13;;
2872;SDS011;1444;49.166;7.312;2023-12-07T02:08:03;31.70;;;13.50;;
2872;SDS011;1444;49.166;7.312;2023-12-07T02:10:31;37.40;;;15.50;;
2872;SDS011;1444;49.166;7.312;2023-12-07T02:12:57;32.77;;;16.60;;
2872;SDS011;1444;49.166;7.312;2023-12-07T02:15:24;41.70;;;20.07;;
2872;SDS011;1444;49.166;7.312;2023-12-07T02:17:52;31.67;;;16.93;;
2872;SDS011;1444;49.166;7.312;2023-12-07T02:20:26;36.83;;;15.87;;
2872;SDS011;1444;49.166;7.312;2023-12-07T02:23:00;30.63;;;16.90;;
2872;SDS011;1444;49.166;7.312;2023-12-07T02:25:29;33.33;;;17.10;;
2872;SDS011;1444;49.166;7.312;2023-12-07T02:27:59;28.33;;;16.70;;
2872;SDS011;1444;49.166;7.312;2023-12-07T02:30:26;35.77;;;15.53;;
2872;SDS011;1444;49.166;7.312;2023-12-07T02:32:53;36.60;;;16.20;;
2872;SDS011;1444;49.166;7.312;2023-12-07T02:35:20;36.50;;;18.13;;
2872;SDS011;1444;49.166;7.312;2023-12-07T02:37:48;36.30;;;17.87;;
2872;SDS011;1444;49.166;7.312;2023-12-07T02:40:17;53.17;;;18.90;;
2872;SDS011;1444;49.166;7.312;2023-12-07T02:42:45;34.40;;;19.43;;
2872;SDS011;1444;49.166;7.312;2023-12-07T02:45:15;37.73;;;18.00;;
2872;SDS011;1444;49.166;7.312;2023-12-07T02:47:42;45.47;;;18.70;;
2872;SDS011;1444;49.166;7.312;2023-12-07T02:50:10;43.50;;;17.23;;
2872;SDS011;1444;49.166;7.312;2023-12-07T02:52:38;42.87;;;18.40;;
2872;SDS011;1444;49.166;7.312;2023-12-07T02:55:05;36.13;;;15.50;;
2872;SDS011;1444;49.166;7.312;2023-12-07T02:57:34;39.30;;;14.40;;
2872;SDS011;1444;49.166;7.312;2023-12-07T03:00:01;57.77;;;20.53;;
2872;SDS011;1444;49.166;7.312;2023-12-07T03:02:32;56.10;;;22.67;;
2872;SDS011;1444;49.166;7.312;2023-12-07T03:05:00;36.27;;;16.50;;
2872;SDS011;1444;49.166;7.312;2023-12-07T03:07:26;46.60;;;19.13;;
2872;SDS011;1444;49.166;7.312;2023-12-07T03:09:53;35.97;;;15.60;;
2872;SDS011;1444;49.166;7.312;2023-12-07T03:12:20;41.73;;;16.37;;
2872;SDS011;1444;49.166;7.312;2023-12-07T03:14:48;39.17;;;17.77;;
2872;SDS011;1444;49.166;7.312;2023-12-07T03:17:15;42.10;;;18.00;;
2872;SDS011;1444;49.166;7.312;2023-12-07T03:19:43;55.03;;;17.60;;
2872;SDS011;1444;49.166;7.312;2023-12-07T03:22:10;43.03;;;16.67;;
2872;SDS011;1444;49.166;7.312;2023-12-07T03:24:38;31.27;;;17.43;;
2872;SDS011;1444;49.166;7.312;2023-12-07T03:27:06;56.07;;;19.33;;
2872;SDS011;1444;49.166;7.312;2023-12-07T03:29:33;49.37;;;21.03;;
2872;SDS011;1444;49.166;7.312;2023-12-07T03:32:00;93.17;;;22.37;;
2872;SDS011;1444;49.166;7.312;2023-12-07T03:34:27;97.87;;;22.13;;
2872;SDS011;1444;49.166;7.312;2023-12-07T03:36:55;50.70;;;17.87;;
2872;SDS011;1444;49.166;7.312;2023-12-07T03:39:22;62.03;;;19.33;;
2872;SDS011;1444;49.166;7.312;2023-12-07T03:41:50;50.20;;;20.70;;
2872;SDS011;1444;49.166;7.312;2023-12-07T03:44:17;67.90;;;20.73;;
2872;SDS011;1444;49.166;7.312;2023-12-07T03:46:44;68.77;;;18.20;;
2872;SDS011;1444;49.166;7.312;2023-12-07T03:49:11;49.70;;;20.27;;
2872;SDS011;1444;49.166;7.312;2023-12-07T03:51:38;74.80;;;20.33;;
2872;SDS011;1444;49.166;7.312;2023-12-07T03:54:07;87.23;;;20.50;;
2872;SDS011;1444;49.166;7.312;2023-12-07T03:56:34;67.13;;;18.07;;
2872;SDS011;1444;49.166;7.312;2023-12-07T03:59:00;60.53;;;18.40;;
2872;SDS011;1444;49.166;7.312;2023-12-07T04:01:28;99.83;;;21.80;;
2872;SDS011;1444;49.166;7.312;2023-12-07T04:03:55;114.87;;;19.90;;
2872;SDS011;1444;49.166;7.312;2023-12-07T04:06:24;26.60;;;11.87;;
2872;SDS011;1444;49.166;7.312;2023-12-07T04:08:51;71.23;;;17.37;;
2872;SDS011;1444;49.166;7.312;2023-12-07T04:11:19;96.07;;;20.63;;
2872;SDS011;1444;49.166;7.312;2023-12-07T04:13:47;68.03;;;14.70;;
2872;SDS011;1444;49.166;7.312;2023-12-07T04:16:14;54.70;;;15.37;;
2872;SDS011;1444;49.166;7.312;2023-12-07T04:18:41;37.73;;;14.57;;
2872;SDS011;1444;49.166;7.312;2023-12-07T04:21:08;53.77;;;15.53;;
2872;SDS011;1444;49.166;7.312;2023-12-07T04:23:35;106.50;;;21.30;;
2872;SDS011;1444;49.166;7.312;2023-12-07T04:26:02;43.20;;;15.20;;
2872;SDS011;1444;49.166;7.312;2023-12-07T04:28:31;80.30;;;18.73;;
2872;SDS011;1444;49.166;7.312;2023-12-07T04:30:58;94.87;;;17.97;;
2872;SDS011;1444;49.166;7.312;2023-12-07T04:33:24;107.40;;;19.93;;
2872;SDS011;1444;49.166;7.312;2023-12-07T04:35:51;47.17;;;16.27;;
2872;SDS011;1444;49.166;7.312;2023-12-07T04:38:18;86.87;;;18.20;;
2872;SDS011;1444;49.166;7.312;2023-12-07T04:40:45;98.67;;;20.30;;
2872;SDS011;1444;49.166;7.312;2023-12-07T04:43:12;280.13;;;35.93;;
2872;SDS011;1444;49.166;7.312;2023-12-07T04:45:40;196.07;;;27.17;;
2872;SDS011;1444;49.166;7.312;2023-12-07T04:48:07;141.87;;;22.63;;
2872;SDS011;1444;49.166;7.312;2023-12-07T04:50:34;114.40;;;20.70;;
2872;SDS011;1444;49.166;7.312;2023-12-07T04:53:01;165.60;;;24.23;;
2872;SDS011;1444;49.166;7.312;2023-12-07T04:55:28;126.43;;;24.30;;
2872;SDS011;1444;49.166;7.312;2023-12-07T04:57:55;249.40;;;29.87;;
2872;SDS011;1444;49.166;7.312;2023-12-07T05:00:22;175.97;;;27.47;;
2872;SDS011;1444;49.166;7.312;2023-12-07T05:02:50;306.53;;;36.00;;
2872;SDS011;1444;49.166;7.312;2023-12-07T05:05:17;436.23;;;41.63;;
2872;SDS011;1444;49.166;7.312;2023-12-07T05:07:44;394.53;;;41.83;;
2872;SDS011;1444;49.166;7.312;2023-12-07T05:10:11;364.77;;;37.77;;
2872;SDS011;1444;49.166;7.312;2023-12-07T05:12:38;49.37;;;17.20;;
2872;SDS011;1444;49.166;7.312;2023-12-07T05:15:05;112.47;;;20.77;;
2872;SDS011;1444;49.166;7.312;2023-12-07T05:17:33;58.70;;;18.83;;
2872;SDS011;1444;49.166;7.312;2023-12-07T05:20:01;149.63;;;23.83;;
2872;SDS011;1444;49.166;7.312;2023-12-07T05:22:31;157.07;;;25.63;;
2872;SDS011;1444;49.166;7.312;2023-12-07T05:24:58;108.77;;;22.80;;
2872;SDS011;1444;49.166;7.312;2023-12-07T05:27:24;302.37;;;36.50;;
2872;SDS011;1444;49.166;7.312;2023-12-07T05:29:51;264.93;;;30.67;;
2872;SDS011;1444;49.166;7.312;2023-12-07T05:32:18;233.73;;;27.20;;
2872;SDS011;1444;49.166;7.312;2023-12-07T05:34:45;123.87;;;21.37;;
2872;SDS011;1444;49.166;7.312;2023-12-07T05:37:13;115.80;;;19.07;;
2872;SDS011;1444;49.166;7.312;2023-12-07T05:39:40;65.60;;;16.40;;
2872;SDS011;1444;49.166;7.312;2023-12-07T05:42:07;69.30;;;15.10;;
2872;SDS011;1444;49.166;7.312;2023-12-07T05:44:34;22.50;;;12.83;;
2872;SDS011;1444;49.166;7.312;2023-12-07T05:47:01;69.50;;;16.50;;
2872;SDS011;1444;49.166;7.312;2023-12-07T05:49:28;20.23;;;10.60;;
2872;SDS011;1444;49.166;7.312;2023-12-07T05:51:54;30.20;;;11.23;;
2872;SDS011;1444;49.166;7.312;2023-12-07T05:54:23;28.90;;;10.40;;
2872;SDS011;1444;49.166;7.312;2023-12-07T05:56:50;112.37;;;17.33;;
2872;SDS011;1444;49.166;7.312;2023-12-07T05:59:17;12.70;;;5.63;;
2872;SDS011;1444;49.166;7.312;2023-12-07T06:01:45;27.50;;;9.97;;
2872;SDS011;1444;49.166;7.312;2023-12-07T06:04:11;91.17;;;17.30;;
2872;SDS011;1444;49.166;7.312;2023-12-07T06:06:38;49.33;;;12.30;;
2872;SDS011;1444;49.166;7.312;2023-12-07T06:09:05;111.50;;;18.17;;
2872;SDS011;1444;49.166;7.312;2023-12-07T06:11:34;94.27;;;14.97;;
2872;SDS011;1444;49.166;7.312;2023-12-07T06:14:01;156.13;;;19.30;;
2872;SDS011;1444;49.166;7.312;2023-12-07T06:16:31;86.33;;;16.07;;
2872;SDS011;1444;49.166;7.312;2023-12-07T06:18:58;128.10;;;17.37;;
2872;SDS011;1444;49.166;7.312;2023-12-07T06:21:24;53.70;;;14.97;;
2872;SDS011;1444;49.166;7.312;2023-12-07T06:23:54;185.90;;;24.20;;
2872;SDS011;1444;49.166;7.312;2023-12-07T06:26:22;47.03;;;12.83;;
2872;SDS011;1444;49.166;7.312;2023-12-07T06:28:50;47.53;;;14.00;;
2872;SDS011;1444;49.166;7.312;2023-12-07T06:31:17;41.07;;;12.30;;
2872;SDS011;1444;49.166;7.312;2023-12-07T06:33:46;77.10;;;16.50;;
2872;SDS011;1444;49.166;7.312;2023-12-07T06:36:17;123.60;;;16.87;;
2872;SDS011;1444;49.166;7.312;2023-12-07T06:38:45;47.40;;;11.63;;
2872;SDS011;1444;49.166;7.312;2023-12-07T06:41:12;28.40;;;11.20;;
2872;SDS011;1444;49.166;7.312;2023-12-07T06:43:40;48.40;;;11.50;;
2872;SDS011;1444;49.166;7.312;2023-12-07T06:46:08;26.57;;;10.60;;
2872;SDS011;1444;49.166;7.312;2023-12-07T06:48:35;51.23;;;16.10;;
2872;SDS011;1444;49.166;7.312;2023-12-07T06:51:02;33.13;;;12.50;;
2872;SDS011;1444;49.166;7.312;2023-12-07T06:53:29;21.83;;;9.63;;
2872;SDS011;1444;49.166;7.312;2023-12-07T06:55:57;30.70;;;10.40;;
2872;SDS011;1444;49.166;7.312;2023-12-07T06:58:24;18.23;;;9.20;;
2872;SDS011;1444;49.166;7.312;2023-12-07T07:00:51;31.20;;;11.30;;
2872;SDS011;1444;49.166;7.312;2023-12-07T07:03:20;28.30;;;9.30;;
2872;SDS011;1444;49.166;7.312;2023-12-07T07:05:47;20.93;;;9.80;;
2872;SDS011;1444;49.166;7.312;2023-12-07T07:08:14;46.77;;;13.80;;
2872;SDS011;1444;49.166;7.312;2023-12-07T07:10:40;26.47;;;11.40;;
2872;SDS011;1444;49.166;7.312;2023-12-07T07:13:07;27.60;;;11.27;;
2872;SDS011;1444;49.166;7.312;2023-12-07T07:15:34;30.87;;;12.93;;
2872;SDS011;1444;49.166;7.312;2023-12-07T07:18:01;35.00;;;10.57;;
2872;SDS011;1444;49.166;7.312;2023-12-07T07:20:29;34.73;;;10.80;;
2872;SDS011;1444;49.166;7.312;2023-12-07T07:22:56;26.03;;;9.57;;
2872;SDS011;1444;49.166;7.312;2023-12-07T07:25:23;24.97;;;9.63;;
2872;SDS011;1444;49.166;7.312;2023-12-07T07:27:50;24.33;;;10.43;;
2872;SDS011;1444;49.166;7.312;2023-12-07T07:30:19;28.37;;;10.27;;
2872;SDS011;1444;49.166;7.312;2023-12-07T07:32:46;41.37;;;11.83;;
2872;SDS011;1444;49.166;7.312;2023-12-07T07:35:14;35.30;;;11.97;;
2872;SDS011;1444;49.166;7.312;2023-12-07T07:37:42;26.17;;;11.50;;
2872;SDS011;1444;49.166;7.312;2023-12-07T07:40:10;32.50;;;11.10;;
2872;SDS011;1444;49.166;7.312;2023-12-07T07:42:37;29.30;;;9.90;;
2872;SDS011;1444;49.166;7.312;2023-12-07T07:45:05;32.63;;;9.40;;
2872;SDS011;1444;49.166;7.312;2023-12-07T07:47:33;21.30;;;10.13;;
2872;SDS011;1444;49.166;7.312;2023-12-07T07:50:00;44.03;;;11.50;;
2872;SDS011;1444;49.166;7.312;2023-12-07T07:52:30;25.70;;;9.73;;
2872;SDS011;1444;49.166;7.312;2023-12-07T07:55:00;38.73;;;11.37;;
2872;SDS011;1444;49.166;7.312;2023-12-07T07:57:27;33.60;;;9.40;;
2872;SDS011;1444;49.166;7.312;2023-12-07T07:59:55;26.97;;;9.30;;
2872;SDS011;1444;49.166;7.312;2023-12-07T08:02:22;23.30;;;10.03;;
2872;SDS011;1444;49.166;7.312;2023-12-07T08:04:49;30.40;;;9.90;;
2872;SDS011;1444;49.166;7.312;2023-12-07T08:07:17;33.83;;;9.23;;
2872;SDS011;1444;49.166;7.312;2023-12-07T08:09:44;52.80;;;11.13;;
2872;SDS011;1444;49.166;7.312;2023-12-07T08:12:12;25.80;;;9.80;;
2872;SDS011;1444;49.166;7.312;2023-12-07T08:14:39;30.87;;;8.63;;
2872;SDS011;1444;49.166;7.312;2023-12-07T08:17:08;30.30;;;9.63;;
2872;SDS011;1444;49.166;7.312;2023-12-07T08:19:36;22.20;;;7.70;;
2872;SDS011;1444;49.166;7.312;2023-12-07T08:22:03;26.40;;;8.47;;
2872;SDS011;1444;49.166;7.312;2023-12-07T08:24:30;20.93;;;10.77;;
2872;SDS011;1444;49.166;7.312;2023-12-07T08:26:57;23.97;;;9.80;;
2872;SDS011;1444;49.166;7.312;2023-12-07T08:29:25;22.07;;;8.50;;
2872;SDS011;1444;49.166;7.312;2023-12-07T08:31:52;20.23;;;8.90;;
2872;SDS011;1444;49.166;7.312;2023-12-07T08:34:19;23.00;;;9.30;;
2872;SDS011;1444;49.166;7.312;2023-12-07T08:36:46;21.53;;;10.80;;
2872;SDS011;1444;49.166;7.312;2023-12-07T08:39:13;17.47;;;8.30;;
2872;SDS011;1444;49.166;7.312;2023-12-07T08:41:40;20.23;;;8.70;;
2872;SDS011;1444;49.166;7.312;2023-12-07T08:44:07;45.33;;;10.40;;
2872;SDS011;1444;49.166;7.312;2023-12-07T08:46:36;15.20;;;6.87;;
2872;SDS011;1444;49.166;7.312;2023-12-07T08:49:02;25.90;;;9.80;;
2872;SDS011;1444;49.166;7.312;2023-12-07T08:51:29;31.57;;;9.70;;
2872;SDS011;1444;49.166;7.312;2023-12-07T08:53:56;33.70;;;8.97;;
2872;SDS011;1444;49.166;7.312;2023-12-07T08:56:23;26.00;;;9.57;;
2872;SDS011;1444;49.166;7.312;2023-12-07T08:58:50;29.23;;;9.60;;
2872;SDS011;1444;49.166;7.312;2023-12-07T09:01:17;28.33;;;9.77;;
2872;SDS011;1444;49.166;7.312;2023-12-07T09:03:45;18.93;;;10.00;;
2872;SDS011;1444;49.166;7.312;2023-12-07T09:06:12;39.73;;;9.60;;
2872;SDS011;1444;49.166;7.312;2023-12-07T09:08:39;62.30;;;13.13;;
2872;SDS011;1444;49.166;7.312;2023-12-07T09:11:06;19.87;;;9.97;;
2872;SDS011;1444;49.166;7.312;2023-12-07T09:13:33;44.67;;;12.37;;
2872;SDS011;1444;49.166;7.312;2023-12-07T09:16:00;25.63;;;9.67;;
2872;SDS011;1444;49.166;7.312;2023-12-07T09:18:26;33.27;;;9.90;;
2872;SDS011;1444;49.166;7.312;2023-12-07T09:20:55;30.20;;;12.60;;
2872;SDS011;1444;49.166;7.312;2023-12-07T09:23:22;32.63;;;11.03;;
2872;SDS011;1444;49.166;7.312;2023-12-07T09:25:48;66.03;;;14.20;;
2872;SDS011;1444;49.166;7.312;2023-12-07T09:28:15;19.67;;;10.43;;
2872;SDS011;1444;49.166;7.312;2023-12-07T09:30:42;31.70;;;11.23;;
2872;SDS011;1444;49.166;7.312;2023-12-07T09:33:09;29.40;;;13.13;;
2872;SDS011;1444;49.166;7.312;2023-12-07T09:35:36;35.27;;;9.00;;
2872;SDS011;1444;49.166;7.312;2023-12-07T09:38:06;20.93;;;8.93;;
2872;SDS011;1444;49.166;7.312;2023-12-07T09:40:34;41.17;;;9.80;;
2872;SDS011;1444;49.166;7.312;2023-12-07T09:43:01;20.97;;;8.30;;
2872;SDS011;1444;49.166;7.312;2023-12-07T09:45:28;21.93;;;10.00;;
2872;SDS011;1444;49.166;7.312;2023-12-07T09:47:55;21.43;;;8.10;;
2872;SDS011;1444;49.166;7.312;2023-12-07T09:50:23;17.47;;;9.57;;
2872;SDS011;1444;49.166;7.312;2023-12-07T09:52:54;22.43;;;10.17;;
2872;SDS011;1444;49.166;7.312;2023-12-07T09:55:24;24.57;;;9.53;;
2872;SDS011;1444;49.166;7.312;2023-12-07T09:57:51;27.57;;;10.10;;
2872;SDS011;1444;49.166;7.312;2023-12-07T10:00:21;44.07;;;9.27;;
2872;SDS011;1444;49.166;7.312;2023-12-07T10:02:47;30.73;;;10.47;;
2872;SDS011;1444;49.166;7.312;2023-12-07T10:05:15;17.53;;;5.80;;
2872;SDS011;1444;49.166;7.312;2023-12-07T10:07:42;19.97;;;9.80;;
2872;SDS011;1444;49.166;7.312;2023-12-07T10:10:11;33.97;;;9.57;;
2872;SDS011;1444;49.166;7.312;2023-12-07T10:12:46;20.90;;;10.20;;
2872;SDS011;1444;49.166;7.312;2023-12-07T10:15:14;26.80;;;10.87;;
2872;SDS011;1444;49.166;7.312;2023-12-07T10:17:48;20.83;;;8.73;;
2872;SDS011;1444;49.166;7.312;2023-12-07T10:20:16;19.83;;;10.70;;
2872;SDS011;1444;49.166;7.312;2023-12-07T10:22:44;21.40;;;10.27;;
2872;SDS011;1444;49.166;7.312;2023-12-07T10:25:11;23.47;;;10.53;;
2872;SDS011;1444;49.166;7.312;2023-12-07T10:27:40;45.67;;;13.00;;
2872;SDS011;1444;49.166;7.312;2023-12-07T10:30:12;18.83;;;9.70;;
2872;SDS011;1444;49.166;7.312;2023-12-07T10:32:39;22.37;;;12.03;;
2872;SDS011;1444;49.166;7.312;2023-12-07T10:35:06;24.83;;;10.73;;
2872;SDS011;1444;49.166;7.312;2023-12-07T10:37:35;27.67;;;10.07;;
2872;SDS011;1444;49.166;7.312;2023-12-07T10:40:02;21.40;;;11.60;;
2872;SDS011;1444;49.166;7.312;2023-12-07T10:42:33;19.40;;;10.97;;
2872;SDS011;1444;49.166;7.312;2023-12-07T10:45:03;16.00;;;9.43;;
2872;SDS011;1444;49.166;7.312;2023-12-07T10:47:34;16.50;;;10.90;;
2872;SDS011;1444;49.166;7.312;2023-12-07T10:50:03;11.67;;;5.53;;
2872;SDS011;1444;49.166;7.312;2023-12-07T10:52:36;25.73;;;10.90;;
2872;SDS011;1444;49.166;7.312;2023-12-07T10:55:05;55.27;;;11.53;;
2872;SDS011;1444;49.166;7.312;2023-12-07T10:57:36;21.73;;;10.77;;
2872;SDS011;1444;49.166;7.312;2023-12-07T11:00:05;20.37;;;10.67;;
2872;SDS011;1444;49.166;7.312;2023-12-07T11:02:36;17.40;;;8.70;;
2872;SDS011;1444;49.166;7.312;2023-12-07T11:05:04;39.23;;;13.07;;
2872;SDS011;1444;49.166;7.312;2023-12-07T11:07:36;18.47;;;9.80;;
2872;SDS011;1444;49.166;7.312;2023-12-07T11:10:10;19.13;;;10.10;;
2872;SDS011;1444;49.166;7.312;2023-12-07T11:12:43;14.97;;;9.17;;
2872;SDS011;1444;49.166;7.312;2023-12-07T11:15:15;16.57;;;9.40;;
2872;SDS011;1444;49.166;7.312;2023-12-07T11:17:52;16.83;;;9.20;;
2872;SDS011;1444;49.166;7.312;2023-12-07T11:20:20;24.00;;;14.50;;
2872;SDS011;1444;49.166;7.312;2023-12-07T11:22:48;16.63;;;8.37;;
2872;SDS011;1444;49.166;7.312;2023-12-07T11:25:17;13.90;;;9.37;;
2872;SDS011;1444;49.166;7.312;2023-12-07T11:27:44;15.57;;;10.20;;
2872;SDS011;1444;49.166;7.312;2023-12-07T11:30:14;13.50;;;9.13;;
2872;SDS011;1444;49.166;7.312;2023-12-07T11:32:42;16.30;;;9.57;;
2872;SDS011;1444;49.166;7.312;2023-12-07T11:35:13;19.47;;;11.57;;
2872;SDS011;1444;49.166;7.312;2023-12-07T11:40:31;16.83;;;9.30;;
2872;SDS011;1444;49.166;7.312;2023-12-07T11:42:59;15.70;;;9.30;;
2872;SDS011;1444;49.166;7.312;2023-12-07T11:45:37;17.40;;;10.20;;
2872;SDS011;1444;49.166;7.312;2023-12-07T11:48:06;26.30;;;11.17;;
2872;SDS011;1444;49.166;7.312;2023-12-07T11:50:35;19.30;;;10.63;;
2872;SDS011;1444;49.166;7.312;2023-12-07T11:53:02;13.47;;;9.33;;
2872;SDS011;1444;49.166;7.312;2023-12-07T11:55:29;16.47;;;10.27;;
2872;SDS011;1444;49.166;7.312;2023-12-07T11:57:58;19.00;;;10.00;;
2872;SDS011;1444;49.166;7.312;2023-12-07T12:00:25;14.47;;;8.93;;
2872;SDS011;1444;49.166;7.312;2023-12-07T12:02:52;13.87;;;9.40;;
2872;SDS011;1444;49.166;7.312;2023-12-07T12:05:19;17.67;;;10.10;;
2872;SDS011;1444;49.166;7.312;2023-12-07T12:07:47;24.33;;;11.53;;
2872;SDS011;1444;49.166;7.312;2023-12-07T12:10:14;14.30;;;9.43;;
2872;SDS011;1444;49.166;7.312;2023-12-07T12:12:41;14.10;;;9.43;;
2872;SDS011;1444;49.166;7.312;2023-12-07T12:15:08;15.13;;;7.47;;
2872;SDS011;1444;49.166;7.312;2023-12-07T12:17:35;30.20;;;10.93;;
2872;SDS011;1444;49.166;7.312;2023-12-07T12:20:02;11.83;;;8.53;;
2872;SDS011;1444;49.166;7.312;2023-12-07T12:22:30;15.80;;;8.10;;
2872;SDS011;1444;49.166;7.312;2023-12-07T12:24:58;15.80;;;9.03;;
2872;SDS011;1444;49.166;7.312;2023-12-07T12:27:25;7.90;;;6.07;;
2872;SDS011;1444;49.166;7.312;2023-12-07T12:29:52;11.73;;;8.00;;
2872;SDS011;1444;49.166;7.312;2023-12-07T12:32:19;13.90;;;7.80;;
2872;SDS011;1444;49.166;7.312;2023-12-07T12:34:50;11.60;;;7.77;;
2872;SDS011;1444;49.166;7.312;2023-12-07T12:37:17;9.80;;;7.57;;
2872;SDS011;1444;49.166;7.312;2023-12-07T12:39:44;13.83;;;7.03;;
2872;SDS011;1444;49.166;7.312;2023-12-07T12:42:12;10.97;;;8.20;;
2872;SDS011;1444;49.166;7.312;2023-12-07T12:44:39;10.20;;;7.87;;
2872;SDS011;1444;49.166;7.312;2023-12-07T12:47:08;12.43;;;8.50;;
2872;SDS011;1444;49.166;7.312;2023-12-07T12:49:36;13.10;;;8.53;;
2872;SDS011;1444;49.166;7.312;2023-12-07T12:52:04;26.03;;;9.60;;
2872;SDS011;1444;49.166;7.312;2023-12-07T12:54:35;14.00;;;9.00;;
2872;SDS011;1444;49.166;7.312;2023-12-07T12:57:02;13.30;;;8.03;;
2872;SDS011;1444;49.166;7.312;2023-12-07T12:59:33;11.37;;;7.50;;
2872;SDS011;1444;49.166;7.312;2023-12-07T13:02:01;9.03;;;7.67;;
2872;SDS011;1444;49.166;7.312;2023-12-07T13:04:30;10.57;;;7.60;;
2872;SDS011;1444;49.166;7.312;2023-12-07T13:06:57;11.43;;;8.40;;
2872;SDS011;1444;49.166;7.312;2023-12-07T13:09:24;8.87;;;7.37;;
2872;SDS011;1444;49.166;7.312;2023-12-07T13:11:50;7.13;;;6.23;;
2872;SDS011;1444;49.166;7.312;2023-12-07T13:14:17;9.73;;;7.20;;
2872;SDS011;1444;49.166;7.312;2023-12-07T13:16:45;10.60;;;7.13;;
2872;SDS011;1444;49.166;7.312;2023-12-07T13:19:12;8.37;;;6.77;;
2872;SDS011;1444;49.166;7.312;2023-12-07T13:21:39;25.03;;;7.50;;
2872;SDS011;1444;49.166;7.312;2023-12-07T13:24:06;11.03;;;6.63;;
2872;SDS011;1444;49.166;7.312;2023-12-07T13:26:37;16.63;;;6.10;;
2872;SDS011;1444;49.166;7.312;2023-12-07T13:29:04;10.63;;;5.67;;
2872;SDS011;1444;49.166;7.312;2023-12-07T13:31:32;10.57;;;6.33;;
2872;SDS011;1444;49.166;7.312;2023-12-07T13:34:01;8.03;;;5.77;;
2872;SDS011;1444;49.166;7.312;2023-12-07T13:36:28;8.10;;;6.00;;
2872;SDS011;1444;49.166;7.312;2023-12-07T13:38:56;13.33;;;6.03;;
2872;SDS011;1444;49.166;7.312;2023-12-07T13:41:24;6.07;;;5.47;;
2872;SDS011;1444;49.166;7.312;2023-12-07T13:43:51;8.50;;;5.40;;
2872;SDS011;1444;49.166;7.312;2023-12-07T13:46:18;8.53;;;6.23;;
2872;SDS011;1444;49.166;7.312;2023-12-07T13:48:45;6.97;;;4.33;;
2872;SDS011;1444;49.166;7.312;2023-12-07T13:51:13;6.70;;;5.00;;
2872;SDS011;1444;49.166;7.312;2023-12-07T13:53:41;14.80;;;5.20;;
2872;SDS011;1444;49.166;7.312;2023-12-07T13:56:08;11.43;;;5.77;;
2872;SDS011;1444;49.166;7.312;2023-12-07T13:58:35;5.00;;;4.27;;
2872;SDS011;1444;49.166;7.312;2023-12-07T14:01:02;19.53;;;5.40;;
2872;SDS011;1444;49.166;7.312;2023-12-07T14:03:30;9.20;;;5.80;;
2872;SDS011;1444;49.166;7.312;2023-12-07T14:05:57;6.20;;;5.00;;
2872;SDS011;1444;49.166;7.312;2023-12-07T14:08:25;16.53;;;5.80;;
2872;SDS011;1444;49.166;7.312;2023-12-07T14:10:52;8.60;;;5.23;;
2872;SDS011;1444;49.166;7.312;2023-12-07T14:13:19;6.80;;;5.37;;
2872;SDS011;1444;49.166;7.312;2023-12-07T14:15:46;9.80;;;6.20;;
2872;SDS011;1444;49.166;7.312;2023-12-07T14:18:13;227.43;;;86.00;;
2872;SDS011;1444;49.166;7.312;2023-12-07T14:20:40;159.00;;;57.27;;
2872;SDS011;1444;49.166;7.312;2023-12-07T14:23:08;9.07;;;7.43;;
2872;SDS011;1444;49.166;7.312;2023-12-07T14:25:37;13.57;;;7.13;;
2872;SDS011;1444;49.166;7.312;2023-12-07T14:28:05;7.73;;;6.13;;
2872;SDS011;1444;49.166;7.312;2023-12-07T14:30:32;10.13;;;6.10;;
2872;SDS011;1444;49.166;7.312;2023-12-07T14:32:59;10.33;;;6.70;;
2872;SDS011;1444;49.166;7.312;2023-12-07T14:35:26;15.30;;;7.10;;
2872;SDS011;1444;49.166;7.312;2023-12-07T14:37:53;7.03;;;6.00;;
2872;SDS011;1444;49.166;7.312;2023-12-07T14:40:19;8.83;;;6.10;;
2872;SDS011;1444;49.166;7.312;2023-12-07T14:42:48;15.87;;;6.03;;
2872;SDS011;1444;49.166;7.312;2023-12-07T14:45:15;15.40;;;7.90;;
2872;SDS011;1444;49.166;7.312;2023-12-07T14:47:45;6.07;;;5.37;;
2872;SDS011;1444;49.166;7.312;2023-12-07T14:50:12;6.57;;;4.80;;
2872;SDS011;1444;49.166;7.312;2023-12-07T14:52:39;9.23;;;6.73;;
2872;SDS011;1444;49.166;7.312;2023-12-07T14:55:06;13.83;;;8.17;;
2872;SDS011;1444;49.166;7.312;2023-12-07T14:57:33;10.90;;;8.77;;